< < Back
Terminal Aerodrome Forecast


Current Version              Previous Versions:   1  2  3  4  5  6  7  8  9  

Terminal Aerodrome Forecast

470
FTUS42 KCHS 012049 AAB
TAFCHS
TAF AMD
KCHS 012049Z 0121/0218 19011KT P6SM VCTS SCT035CB BKN120
      TEMPO 0121/0122 6SM TSRA SCT025CB BKN035 OVC120
     FM012300 21006KT P6SM FEW035 SCT200=



Latest METAR

032
SAUS80 KWBC 020100 RRC
MTRCHS
METAR KCHS 020056Z 17007KT 10SM SCT020 BKN030 BKN250 27/24 A2998 RMK AO2
RAE00 SLP150 P0000 T02670244


USA.gov is the U.S. government's official web portal to all federal, state and local government web resources and services.